Time;durP1;ratioP1;P1;durP2;ratioP2;P2;SDS_P1;SDS_P2;PMS_P1;PMS_P2;Temp;Humidity;BMP_temperature;BMP_pressure;BME280_temperature;BME280_humidity;BME280_pressure;Samples;Min_cycle;Max_cycle;Signal;HPM_P1;HPM_P2
2022/11/07 00:02:14;;;;;;;3.25;1.95;;;;;;;;;;4991687;28;20069;-72
2022/11/07 00:04:40;;;;;;;2.88;1.77;;;;;;;;;;4986474;28;20544;-73
2022/11/07 00:07:06;;;;;;;3.42;1.95;;;;;;;;;;4990925;28;20049;-72
2022/11/07 00:09:33;;;;;;;6.00;2.65;;;;;;;;;;4990957;28;20369;-72
2022/11/07 00:11:59;;;;;;;4.30;2.13;;;;;;;;;;4991318;28;20038;-73
2022/11/07 00:14:25;;;;;;;2.90;1.98;;;;;;;;;;4990282;28;20033;-72
2022/11/07 00:16:51;;;;;;;4.35;2.20;;;;;;;;;;4984750;28;20492;-73
2022/11/07 00:19:19;;;;;;;6.18;2.40;;;;;;;;;;4982107;28;20391;-73
2022/11/07 00:21:47;;;;;;;5.88;2.15;;;;;;;;;;4978815;28;20034;-72
2022/11/07 00:24:16;;;;;;;5.80;2.20;;;;;;;;;;4991437;28;20026;-73
2022/11/07 00:26:44;;;;;;;5.20;2.38;;;;;;;;;;4984659;28;20034;-72
2022/11/07 00:29:15;;;;;;;5.00;2.60;;;;;;;;;;4992101;28;20026;-72
2022/11/07 00:31:40;;;;;;;3.58;2.40;;;;;;;;;;4989530;28;20057;-73
2022/11/07 00:34:06;;;;;;;5.03;2.95;;;;;;;;;;4991289;28;20034;-73
2022/11/07 00:36:32;;;;;;;6.38;3.00;;;;;;;;;;4990825;28;20042;-73
2022/11/07 00:38:58;;;;;;;7.43;3.10;;;;;;;;;;4986335;28;20026;-72
2022/11/07 00:41:24;;;;;;;5.53;2.97;;;;;;;;;;4990573;28;20057;-73
2022/11/07 00:43:51;;;;;;;6.25;3.17;;;;;;;;;;4990208;28;20480;-73
2022/11/07 00:46:18;;;;;;;6.15;3.00;;;;;;;;;;4989195;28;20097;-73
2022/11/07 00:48:45;;;;;;;3.90;2.72;;;;;;;;;;4990230;28;20058;-72
2022/11/07 00:51:14;;;;;;;5.95;2.65;;;;;;;;;;4987461;28;20442;-72
2022/11/07 00:53:40;;;;;;;5.70;3.00;;;;;;;;;;4989810;28;20038;-72
2022/11/07 00:56:10;;;;;;;4.72;2.60;;;;;;;;;;4990673;28;20030;-71
2022/11/07 00:58:36;;;;;;;5.40;3.08;;;;;;;;;;4991634;28;20026;-71
2022/11/07 01:01:09;;;;;;;6.18;2.75;;;;;;;;;;4991083;28;20062;-73
2022/11/07 01:06:20;;;;;;;4.47;3.15;;;;;;;;;;4990240;28;20113;-71
2022/11/07 01:08:46;;;;;;;4.97;3.40;;;;;;;;;;4985150;28;20514;-72
2022/11/07 01:11:12;;;;;;;7.10;3.42;;;;;;;;;;4991245;28;20407;-73
2022/11/07 01:13:38;;;;;;;5.05;3.50;;;;;;;;;;4991080;28;20023;-73
2022/11/07 01:16:04;;;;;;;5.70;3.10;;;;;;;;;;4991037;28;20545;-72
2022/11/07 01:18:30;;;;;;;4.78;2.80;;;;;;;;;;4991018;28;20153;-72
2022/11/07 01:20:56;;;;;;;4.40;2.70;;;;;;;;;;4991200;28;20037;-72
2022/11/07 01:23:22;;;;;;;4.90;2.80;;;;;;;;;;4990901;28;20026;-72
2022/11/07 01:25:48;;;;;;;6.20;2.67;;;;;;;;;;4991691;28;20038;-72
2022/11/07 01:28:14;;;;;;;4.50;2.47;;;;;;;;;;4991053;28;20018;-72
2022/11/07 01:30:42;;;;;;;6.18;2.85;;;;;;;;;;4991316;28;20483;-73
2022/11/07 01:33:09;;;;;;;4.55;2.63;;;;;;;;;;4990777;28;20026;-72
2022/11/07 01:35:35;;;;;;;4.53;2.53;;;;;;;;;;4991152;28;20034;-73
2022/11/07 01:38:01;;;;;;;4.25;3.17;;;;;;;;;;4991397;28;20034;-72
2022/11/07 01:40:27;;;;;;;7.22;3.00;;;;;;;;;;4994774;28;20053;-72
2022/11/07 01:42:53;;;;;;;7.15;2.92;;;;;;;;;;4994602;28;20479;-72
2022/11/07 01:45:25;;;;;;;6.25;3.10;;;;;;;;;;4994783;28;20037;-72
2022/11/07 01:47:54;;;;;;;4.63;2.60;;;;;;;;;;4994685;28;20033;-72
2022/11/07 01:50:20;;;;;;;7.40;3.40;;;;;;;;;;4994506;28;20022;-72
2022/11/07 01:52:49;;;;;;;4.75;2.78;;;;;;;;;;4994450;28;20042;-73
2022/11/07 01:55:22;;;;;;;6.30;3.08;;;;;;;;;;4994697;28;20026;-72
2022/11/07 01:57:56;;;;;;;5.72;3.30;;;;;;;;;;4994820;28;20034;-72
2022/11/07 02:00:23;;;;;;;;;;;;;;;;;;4994369;28;20036;-72
2022/11/07 02:02:56;;;;;;;8.00;3.17;;;;;;;;;;4994418;28;20367;-73
2022/11/07 02:05:34;;;;;;;4.70;2.28;;;;;;;;;;4993939;28;20116;-73
2022/11/07 02:08:03;;;;;;;4.82;2.60;;;;;;;;;;4990320;28;20116;-73
2022/11/07 02:10:29;;;;;;;4.20;2.55;;;;;;;;;;4990150;28;20027;-73
2022/11/07 02:12:57;;;;;;;4.65;2.75;;;;;;;;;;4993755;28;20035;-73
2022/11/07 02:15:25;;;;;;;7.22;2.97;;;;;;;;;;4992218;28;20034;-73
2022/11/07 02:17:51;;;;;;;5.82;3.10;;;;;;;;;;4992135;28;20030;-72
2022/11/07 02:20:17;;;;;;;7.88;3.38;;;;;;;;;;4992238;28;20434;-73
2022/11/07 02:23:05;;;;;;;5.18;2.83;;;;;;;;;;4993172;28;20042;-72
2022/11/07 02:25:32;;;;;;;6.07;3.38;;;;;;;;;;4991119;28;20048;-73
2022/11/07 02:28:00;;;;;;;7.45;3.20;;;;;;;;;;4992887;28;20069;-73
2022/11/07 02:30:29;;;;;;;5.05;3.60;;;;;;;;;;4994226;28;20066;-72
2022/11/07 02:32:55;;;;;;;5.30;4.18;;;;;;;;;;4993643;28;20038;-74
2022/11/07 02:35:35;;;;;;;5.53;3.15;;;;;;;;;;4987963;28;20654;-72
2022/11/07 02:38:21;;;;;;;7.78;3.30;;;;;;;;;;4961904;28;20085;-73
2022/11/07 02:40:55;;;;;;;6.47;3.55;;;;;;;;;;4973448;28;20117;-73
2022/11/07 02:43:26;;;;;;;4.72;3.35;;;;;;;;;;4972814;28;20033;-72
2022/11/07 02:45:53;;;;;;;4.28;2.55;;;;;;;;;;4974163;28;20388;-73
2022/11/07 02:48:19;;;;;;;5.28;2.92;;;;;;;;;;4973645;28;20035;-73
2022/11/07 02:50:45;;;;;;;3.95;2.85;;;;;;;;;;4973730;28;20393;-72
2022/11/07 02:53:11;;;;;;;5.22;3.40;;;;;;;;;;4973351;28;20033;-72
2022/11/07 02:55:37;;;;;;;6.97;3.30;;;;;;;;;;4972915;28;20036;-73
2022/11/07 02:58:04;;;;;;;6.75;3.33;;;;;;;;;;4972393;28;20038;-73
2022/11/07 03:00:30;;;;;;;5.72;2.58;;;;;;;;;;4972792;28;20039;-73
2022/11/07 03:02:55;;;;;;;4.43;2.80;;;;;;;;;;4972949;28;20033;-73
2022/11/07 03:05:21;;;;;;;4.50;2.90;;;;;;;;;;4973047;28;20045;-73
2022/11/07 03:07:48;;;;;;;4.97;2.85;;;;;;;;;;4970866;28;20064;-73
2022/11/07 03:10:16;;;;;;;5.88;3.03;;;;;;;;;;4974128;28;20559;-73
2022/11/07 03:12:42;;;;;;;5.13;2.83;;;;;;;;;;4974035;28;20042;-73
2022/11/07 03:15:09;;;;;;;6.32;3.17;;;;;;;;;;4973468;28;20043;-73
2022/11/07 03:17:35;;;;;;;5.40;2.55;;;;;;;;;;4973912;28;20062;-73
2022/11/07 03:20:01;;;;;;;6.65;2.40;;;;;;;;;;4973681;28;20093;-72
2022/11/07 03:22:27;;;;;;;5.40;2.83;;;;;;;;;;4934582;28;20123;-72
2022/11/07 03:24:53;;;;;;;5.55;2.30;;;;;;;;;;4953703;28;20038;-72
2022/11/07 03:27:19;;;;;;;3.42;2.10;;;;;;;;;;4954883;29;20113;-72
2022/11/07 03:29:45;;;;;;;3.72;2.40;;;;;;;;;;4954397;29;20035;-72
2022/11/07 03:32:11;;;;;;;7.63;3.85;;;;;;;;;;4953879;28;20030;-72
2022/11/07 03:34:37;;;;;;;3.25;2.13;;;;;;;;;;4954260;29;20114;-72
2022/11/07 03:37:03;;;;;;;3.38;2.13;;;;;;;;;;4954312;29;20023;-73
2022/11/07 03:39:30;;;;;;;3.60;2.20;;;;;;;;;;4954197;29;20481;-72
2022/11/07 03:41:56;;;;;;;5.68;2.38;;;;;;;;;;4954017;29;20094;-73
2022/11/07 03:44:22;;;;;;;6.40;2.50;;;;;;;;;;4953844;29;20076;-72
2022/11/07 03:46:48;;;;;;;3.25;2.10;;;;;;;;;;4953899;29;20042;-72
2022/11/07 03:49:13;;;;;;;3.95;2.42;;;;;;;;;;4953778;29;20050;-72
2022/11/07 03:51:39;;;;;;;4.82;2.53;;;;;;;;;;4953753;29;20031;-72
2022/11/07 03:54:06;;;;;;;4.75;2.83;;;;;;;;;;4953305;29;20035;-72
2022/11/07 03:56:31;;;;;;;9.95;2.97;;;;;;;;;;4953890;29;20070;-72
2022/11/07 03:58:57;;;;;;;5.60;2.60;;;;;;;;;;4953693;29;20039;-72
2022/11/07 04:01:23;;;;;;;4.72;2.50;;;;;;;;;;4952867;28;20066;-73
2022/11/07 04:03:49;;;;;;;4.75;2.70;;;;;;;;;;4953528;29;20110;-73
2022/11/07 04:06:15;;;;;;;4.07;2.67;;;;;;;;;;4953744;29;20019;-73
2022/11/07 04:08:41;;;;;;;6.90;2.60;;;;;;;;;;4953750;29;20136;-72
2022/11/07 04:11:06;;;;;;;4.25;2.22;;;;;;;;;;4953487;29;20366;-73
2022/11/07 04:19:03;;;;;;;4.00;2.72;;;;;;;;;;4952840;29;20102;-72
2022/11/07 04:21:28;;;;;;;5.07;2.97;;;;;;;;;;4936120;29;20097;-71
2022/11/07 04:23:54;;;;;;;7.28;3.30;;;;;;;;;;4953115;29;20027;-72
2022/11/07 04:29:05;;;;;;;4.10;2.40;;;;;;;;;;4953653;29;20031;-72
2022/11/07 04:31:31;;;;;;;4.57;2.20;;;;;;;;;;4935468;29;20031;-72
2022/11/07 04:33:57;;;;;;;3.00;2.20;;;;;;;;;;4953017;29;20043;-72
2022/11/07 04:36:22;;;;;;;3.97;2.33;;;;;;;;;;4953009;29;20028;-73
2022/11/07 04:38:48;;;;;;;2.95;2.10;;;;;;;;;;4934681;28;20509;-72
2022/11/07 04:41:20;;;;;;;4.10;2.00;;;;;;;;;;4990646;28;20022;-72
2022/11/07 04:43:47;;;;;;;4.80;2.08;;;;;;;;;;4991294;28;20476;-72
2022/11/07 04:46:13;;;;;;;3.80;2.35;;;;;;;;;;4991814;28;20022;-72
2022/11/07 04:48:38;;;;;;;3.33;2.10;;;;;;;;;;4974207;28;20045;-73
2022/11/07 04:51:04;;;;;;;4.43;2.00;;;;;;;;;;4974186;28;20034;-72
2022/11/07 04:53:30;;;;;;;5.60;2.55;;;;;;;;;;4991442;28;20053;-72
2022/11/07 04:55:56;;;;;;;5.93;2.47;;;;;;;;;;4991499;28;20026;-72
2022/11/07 04:58:22;;;;;;;4.68;2.20;;;;;;;;;;4991510;28;20065;-73
2022/11/07 05:00:48;;;;;;;4.32;2.00;;;;;;;;;;4989959;28;20069;-72
2022/11/07 05:03:14;;;;;;;5.30;2.45;;;;;;;;;;4990832;28;20042;-72
2022/11/07 05:05:40;;;;;;;3.90;2.40;;;;;;;;;;4974140;28;20022;-72
2022/11/07 05:08:07;;;;;;;4.70;2.15;;;;;;;;;;4991197;28;20062;-72
2022/11/07 05:10:33;;;;;;;8.40;2.65;;;;;;;;;;4990998;28;20053;-72
2022/11/07 05:12:59;;;;;;;4.45;2.35;;;;;;;;;;4992676;28;20030;-72
2022/11/07 05:15:25;;;;;;;4.80;2.28;;;;;;;;;;4993880;28;20023;-73
2022/11/07 05:17:51;;;;;;;4.35;2.63;;;;;;;;;;4994792;28;20034;-71
2022/11/07 05:20:31;;;;;;;3.28;2.60;;;;;;;;;;4995052;28;20506;-73
2022/11/07 05:23:17;;;;;;;4.53;2.72;;;;;;;;;;4994846;28;20061;-73
2022/11/07 05:25:44;;;;;;;5.38;3.30;;;;;;;;;;4993312;28;20860;-73
2022/11/07 05:28:12;;;;;;;6.35;3.10;;;;;;;;;;4991982;28;20030;-70
2022/11/07 05:30:40;;;;;;;6.97;3.00;;;;;;;;;;4985832;28;20100;-72
2022/11/07 05:33:07;;;;;;;4.38;2.63;;;;;;;;;;4990744;28;20022;-72
2022/11/07 05:35:33;;;;;;;7.32;3.08;;;;;;;;;;5000865;28;20476;-73
2022/11/07 05:37:59;;;;;;;6.85;3.00;;;;;;;;;;4991418;28;20038;-73
2022/11/07 05:40:25;;;;;;;5.88;2.50;;;;;;;;;;4992523;28;20045;-73
2022/11/07 05:42:50;;;;;;;6.47;3.10;;;;;;;;;;4986960;28;20492;-71
2022/11/07 05:45:16;;;;;;;4.88;2.60;;;;;;;;;;4988059;28;20514;-72
2022/11/07 05:47:43;;;;;;;7.05;3.17;;;;;;;;;;4994680;28;20091;-73
2022/11/07 05:50:09;;;;;;;6.68;3.03;;;;;;;;;;4983521;28;20547;-72
2022/11/07 05:52:35;;;;;;;5.03;2.70;;;;;;;;;;4988886;28;20015;-72
2022/11/07 05:55:01;;;;;;;6.43;3.10;;;;;;;;;;4992252;28;20085;-71
2022/11/07 05:57:29;;;;;;;7.10;3.00;;;;;;;;;;4991621;28;20780;-71
2022/11/07 05:59:55;;;;;;;6.32;3.85;;;;;;;;;;4992944;28;20433;-72
2022/11/07 06:02:20;;;;;;;5.25;3.35;;;;;;;;;;4992367;28;20037;-73
2022/11/07 06:04:46;;;;;;;5.50;3.13;;;;;;;;;;4993269;28;20514;-72
2022/11/07 06:07:12;;;;;;;9.10;5.00;;;;;;;;;;4993962;28;20022;-72
2022/11/07 06:09:38;;;;;;;12.52;6.55;;;;;;;;;;4978246;28;20444;-72
2022/11/07 06:12:04;;;;;;;8.75;5.25;;;;;;;;;;4993502;28;20019;-73
2022/11/07 06:14:30;;;;;;;6.90;3.60;;;;;;;;;;4992811;28;20053;-71
2022/11/07 06:16:56;;;;;;;6.25;2.90;;;;;;;;;;4993357;28;20030;-72
2022/11/07 06:19:22;;;;;;;5.85;3.20;;;;;;;;;;4993279;28;20057;-72
2022/11/07 06:21:48;;;;;;;9.75;3.15;;;;;;;;;;4973571;28;20043;-72
2022/11/07 06:24:13;;;;;;;7.38;4.80;;;;;;;;;;4974292;28;20039;-71
2022/11/07 06:26:39;;;;;;;8.98;2.95;;;;;;;;;;4975179;28;20110;-73
2022/11/07 06:29:06;;;;;;;8.70;2.50;;;;;;;;;;4979244;28;20030;-72
2022/11/07 06:31:32;;;;;;;4.07;2.08;;;;;;;;;;4995029;28;20052;-73
2022/11/07 06:33:57;;;;;;;5.60;2.25;;;;;;;;;;4994649;28;20129;-72
2022/11/07 06:36:23;;;;;;;7.03;3.38;;;;;;;;;;4993086;28;20030;-72
2022/11/07 06:38:52;;;;;;;12.43;3.40;;;;;;;;;;4992936;28;20037;-72
2022/11/07 06:41:18;;;;;;;4.68;3.10;;;;;;;;;;4993478;28;20046;-72
2022/11/07 06:43:44;;;;;;;7.97;3.63;;;;;;;;;;4993753;28;20185;-72
2022/11/07 06:46:13;;;;;;;19.98;4.60;;;;;;;;;;4994128;28;20109;-72
2022/11/07 06:48:38;;;;;;;15.23;4.35;;;;;;;;;;4994085;28;20038;-72
2022/11/07 06:51:06;;;;;;;7.97;3.78;;;;;;;;;;4994588;28;20026;-72
2022/11/07 06:53:32;;;;;;;8.68;3.92;;;;;;;;;;4993898;28;20062;-72
2022/11/07 06:55:59;;;;;;;13.20;3.38;;;;;;;;;;4975734;28;20037;-72
2022/11/07 06:58:25;;;;;;;21.05;4.72;;;;;;;;;;4992089;28;20399;-72
2022/11/07 07:00:51;;;;;;;8.75;3.33;;;;;;;;;;4993096;28;20026;-71
2022/11/07 07:03:17;;;;;;;6.28;2.50;;;;;;;;;;4993361;28;20035;-72
2022/11/07 07:05:42;;;;;;;4.40;2.72;;;;;;;;;;4993500;28;20022;-72
2022/11/07 07:08:11;;;;;;;6.22;2.40;;;;;;;;;;4976043;28;20145;-72
2022/11/07 07:10:40;;;;;;;7.35;2.92;;;;;;;;;;4993339;28;20117;-73
2022/11/07 07:13:06;;;;;;;11.43;2.63;;;;;;;;;;4993479;28;20038;-73
2022/11/07 07:15:32;;;;;;;5.47;2.53;;;;;;;;;;4993160;28;20452;-73
2022/11/07 07:17:59;;;;;;;5.65;2.60;;;;;;;;;;4992459;28;20069;-72
2022/11/07 07:20:25;;;;;;;9.77;2.40;;;;;;;;;;4993122;28;20396;-72
2022/11/07 07:22:51;;;;;;;5.18;2.17;;;;;;;;;;4993425;28;20057;-72
2022/11/07 07:25:17;;;;;;;5.90;2.10;;;;;;;;;;4993495;28;20073;-72
2022/11/07 07:27:43;;;;;;;8.18;2.45;;;;;;;;;;4992965;28;20034;-71
2022/11/07 07:30:09;;;;;;;5.40;2.90;;;;;;;;;;4993132;28;20396;-72
2022/11/07 07:32:35;;;;;;;6.22;2.83;;;;;;;;;;4992793;28;20034;-72
2022/11/07 07:35:01;;;;;;;7.35;2.53;;;;;;;;;;4992379;28;20027;-72
2022/11/07 07:37:27;;;;;;;8.60;2.33;;;;;;;;;;4992076;28;20035;-71
2022/11/07 07:39:53;;;;;;;5.93;2.42;;;;;;;;;;4975307;28;20026;-72
2022/11/07 07:42:18;;;;;;;7.60;2.53;;;;;;;;;;4992602;28;20035;-71
2022/11/07 07:44:44;;;;;;;5.20;2.60;;;;;;;;;;4993082;28;20067;-72
2022/11/07 07:47:10;;;;;;;7.78;2.83;;;;;;;;;;4992781;28;20115;-72
2022/11/07 07:49:36;;;;;;;9.20;2.58;;;;;;;;;;4992600;28;20067;-71
2022/11/07 07:52:02;;;;;;;7.78;2.75;;;;;;;;;;4975597;28;20090;-69
2022/11/07 07:54:28;;;;;;;7.00;2.35;;;;;;;;;;5000826;28;20425;-71
2022/11/07 07:56:53;;;;;;;5.60;2.55;;;;;;;;;;4992247;28;20082;-71
2022/11/07 07:59:19;;;;;;;10.68;3.15;;;;;;;;;;4992546;28;20022;-71
2022/11/07 08:01:45;;;;;;;5.45;3.13;;;;;;;;;;4990015;28;20099;-71
2022/11/07 08:04:11;;;;;;;10.88;3.63;;;;;;;;;;4991912;28;20022;-72
2022/11/07 08:06:37;;;;;;;9.32;3.33;;;;;;;;;;4991386;28;20451;-72
2022/11/07 08:09:03;;;;;;;17.63;6.80;;;;;;;;;;4991788;28;20078;-69
2022/11/07 08:11:29;;;;;;;13.18;6.50;;;;;;;;;;4991517;28;20109;-70
2022/11/07 08:13:56;;;;;;;9.23;3.20;;;;;;;;;;4991976;28;20153;-71
2022/11/07 08:16:23;;;;;;;9.52;2.50;;;;;;;;;;4992020;28;20038;-72
2022/11/07 08:18:49;;;;;;;11.43;3.42;;;;;;;;;;4991526;28;20108;-72
2022/11/07 08:21:15;;;;;;;11.30;4.05;;;;;;;;;;4992067;28;20042;-71
2022/11/07 08:23:40;;;;;;;12.63;3.97;;;;;;;;;;4992103;28;20045;-71
2022/11/07 08:26:06;;;;;;;6.22;3.58;;;;;;;;;;4991864;28;20042;-72
2022/11/07 08:28:34;;;;;;;11.88;3.88;;;;;;;;;;4991982;28;20069;-71
2022/11/07 08:31:03;;;;;;;18.00;5.88;;;;;;;;;;4991148;28;20125;-71
2022/11/07 08:33:29;;;;;;;10.25;4.82;;;;;;;;;;4991093;28;20026;-72
2022/11/07 08:35:59;;;;;;;10.05;3.90;;;;;;;;;;4991328;28;20064;-72
2022/11/07 08:38:25;;;;;;;8.68;3.42;;;;;;;;;;4991812;28;20060;-71
2022/11/07 08:40:52;;;;;;;11.07;3.55;;;;;;;;;;4991692;28;20046;-72
2022/11/07 08:43:18;;;;;;;17.35;5.18;;;;;;;;;;4991417;28;20093;-71
2022/11/07 08:45:46;;;;;;;11.10;3.83;;;;;;;;;;4991586;28;20044;-72
2022/11/07 08:48:13;;;;;;;9.70;3.45;;;;;;;;;;4991493;28;20502;-72
2022/11/07 08:50:40;;;;;;;5.68;3.33;;;;;;;;;;4991546;28;20070;-72
2022/11/07 08:53:06;;;;;;;7.80;3.03;;;;;;;;;;4991673;28;20033;-72
2022/11/07 08:55:32;;;;;;;6.68;3.38;;;;;;;;;;4974204;28;20039;-72
2022/11/07 08:58:00;;;;;;;12.93;3.75;;;;;;;;;;4991752;28;20026;-73
2022/11/07 09:00:26;;;;;;;7.38;3.00;;;;;;;;;;4991772;28;20042;-72
2022/11/07 09:02:52;;;;;;;13.20;5.05;;;;;;;;;;4991789;28;20033;-71
2022/11/07 09:05:17;;;;;;;13.32;6.10;;;;;;;;;;4991820;28;20026;-72
2022/11/07 09:07:44;;;;;;;8.40;4.00;;;;;;;;;;4991754;28;20059;-72
2022/11/07 09:10:10;;;;;;;16.95;5.50;;;;;;;;;;4990646;28;20039;-72
2022/11/07 09:12:43;;;;;;;24.25;5.75;;;;;;;;;;4991602;28;20062;-71
2022/11/07 09:15:10;;;;;;;;;;;;;;;;;;4991898;28;20121;-71
2022/11/07 09:17:36;;;;;;;8.60;3.80;;;;;;;;;;4973742;28;19917;-71
2022/11/07 09:20:03;;;;;;;13.43;4.85;;;;;;;;;;4991015;28;20046;-72
2022/11/07 09:22:29;;;;;;;14.25;5.40;;;;;;;;;;4991470;28;20045;-71
2022/11/07 09:24:55;;;;;;;16.30;5.00;;;;;;;;;;4991562;28;20105;-70
2022/11/07 09:27:20;;;;;;;12.98;5.28;;;;;;;;;;4990980;28;20127;-71
2022/11/07 09:29:46;;;;;;;20.80;7.82;;;;;;;;;;4991140;28;20093;-71
2022/11/07 09:32:12;;;;;;;8.65;3.97;;;;;;;;;;4973663;28;20345;-71
2022/11/07 09:34:38;;;;;;;11.02;5.05;;;;;;;;;;4990596;28;20114;-71
2022/11/07 09:37:04;;;;;;;10.20;4.50;;;;;;;;;;4991209;28;20558;-72
2022/11/07 09:39:31;;;;;;;10.23;4.38;;;;;;;;;;4991162;28;20027;-72
2022/11/07 09:42:19;;;;;;;12.30;4.25;;;;;;;;;;4991019;28;20030;-72
2022/11/07 09:44:55;;;;;;;13.43;4.13;;;;;;;;;;4990780;28;20078;-71
2022/11/07 09:47:46;;;;;;;12.88;5.20;;;;;;;;;;4990314;28;20455;-72
2022/11/07 09:50:29;;;;;;;14.43;6.47;;;;;;;;;;4979865;28;20057;-72
2022/11/07 09:53:21;;;;;;;10.10;4.55;;;;;;;;;;4989540;28;20046;-70
2022/11/07 09:55:58;;;;;;;9.95;4.32;;;;;;;;;;4990940;28;20161;-71
2022/11/07 09:58:35;;;;;;;14.23;5.15;;;;;;;;;;4990704;28;20065;-71
2022/11/07 10:01:09;;;;;;;9.35;4.57;;;;;;;;;;4993464;28;20105;-72
2022/11/07 10:03:38;;;;;;;11.50;4.85;;;;;;;;;;4994293;28;20200;-72
2022/11/07 10:06:04;;;;;;;9.40;5.85;;;;;;;;;;4993639;28;20053;-72
2022/11/07 10:09:10;;;;;;;9.82;5.10;;;;;;;;;;4993919;28;20112;-72
2022/11/07 10:12:26;;;;;;;13.15;5.40;;;;;;;;;;4965610;28;20042;-71
2022/11/07 10:14:52;;;;;;;11.98;5.55;;;;;;;;;;4942258;28;20101;-71
2022/11/07 10:17:41;;;;;;;11.80;5.07;;;;;;;;;;4975090;28;20023;-72
2022/11/07 10:20:34;;;;;;;13.43;5.47;;;;;;;;;;4974714;28;20090;-71
2022/11/07 10:23:26;;;;;;;13.07;4.88;;;;;;;;;;4974951;28;20352;-71
2022/11/07 10:26:10;;;;;;;13.85;5.60;;;;;;;;;;4983815;28;20396;-72
2022/11/07 10:28:41;;;;;;;;;;;;;;;;;;4994250;28;20125;-71
2022/11/07 10:31:11;;;;;;;9.15;4.57;;;;;;;;;;4993843;28;19914;-72
2022/11/07 10:33:54;;;;;;;8.63;4.53;;;;;;;;;;4993552;28;20022;-71
2022/11/07 10:36:27;;;;;;;9.05;4.22;;;;;;;;;;4993912;28;20079;-71
2022/11/07 10:38:53;;;;;;;10.80;4.53;;;;;;;;;;4992539;28;20539;-71
2022/11/07 10:41:25;;;;;;;8.32;4.85;;;;;;;;;;4993934;28;20081;-72
2022/11/07 10:44:02;;;;;;;11.90;4.75;;;;;;;;;;4993802;28;20034;-72
2022/11/07 10:46:38;;;;;;;22.45;6.30;;;;;;;;;;4993512;28;20455;-70
2022/11/07 10:49:26;;;;;;;15.80;5.25;;;;;;;;;;4975677;28;20026;-71
2022/11/07 10:51:53;;;;;;;10.48;4.97;;;;;;;;;;4993263;28;20041;-71
2022/11/07 10:54:28;;;;;;;14.15;6.15;;;;;;;;;;4993588;28;20037;-71
2022/11/07 10:57:03;;;;;;;13.50;5.38;;;;;;;;;;4993849;28;20030;-71
2022/11/07 10:59:30;;;;;;;16.90;6.53;;;;;;;;;;4992068;28;20082;-72
2022/11/07 11:01:59;;;;;;;7.85;4.75;;;;;;;;;;4992435;28;20101;-71
2022/11/07 11:04:31;;;;;;;10.02;4.85;;;;;;;;;;4992440;28;20031;-71
2022/11/07 11:07:10;;;;;;;13.98;5.00;;;;;;;;;;4993751;28;20042;-71
2022/11/07 11:09:36;;;;;;;11.57;5.13;;;;;;;;;;4992864;28;20081;-70
2022/11/07 11:12:11;;;;;;;11.27;5.47;;;;;;;;;;4993113;28;20054;-71
2022/11/07 11:14:37;;;;;;;15.48;6.68;;;;;;;;;;4993466;28;20041;-71
2022/11/07 11:17:03;;;;;;;18.80;5.63;;;;;;;;;;4993393;28;20073;-71
2022/11/07 11:19:38;;;;;;;13.63;6.70;;;;;;;;;;4993179;28;20407;-70
2022/11/07 11:22:14;;;;;;;13.82;5.30;;;;;;;;;;4993242;28;20043;-70
2022/11/07 11:24:39;;;;;;;10.55;5.80;;;;;;;;;;4992674;28;20514;-70
2022/11/07 11:27:12;;;;;;;11.95;5.43;;;;;;;;;;4992996;28;20022;-70
2022/11/07 11:29:49;;;;;;;8.68;5.47;;;;;;;;;;4991615;28;20441;-71
2022/11/07 11:32:47;;;;;;;11.48;5.55;;;;;;;;;;4993011;28;20034;-70
2022/11/07 11:35:19;;;;;;;11.73;5.57;;;;;;;;;;4992230;28;20034;-70
2022/11/07 11:37:56;;;;;;;9.63;5.45;;;;;;;;;;4992719;28;20058;-71
2022/11/07 11:40:23;;;;;;;11.10;5.55;;;;;;;;;;4993462;28;20412;-70
2022/11/07 11:42:56;;;;;;;14.55;6.00;;;;;;;;;;4993139;28;20022;-70
2022/11/07 11:45:48;;;;;;;16.30;6.55;;;;;;;;;;4992647;28;20062;-70
2022/11/07 11:48:35;;;;;;;9.88;6.25;;;;;;;;;;4970039;28;20065;-70
2022/11/07 11:51:30;;;;;;;13.25;7.88;;;;;;;;;;4993072;28;20034;-71
2022/11/07 11:53:56;;;;;;;15.38;6.60;;;;;;;;;;4992844;28;20039;-71
2022/11/07 11:56:46;;;;;;;12.98;6.20;;;;;;;;;;4992898;28;20120;-71
2022/11/07 11:59:24;;;;;;;15.88;7.60;;;;;;;;;;4993216;28;20030;-71
2022/11/07 12:01:58;;;;;;;10.10;6.53;;;;;;;;;;4992507;28;20054;-70
2022/11/07 12:04:27;;;;;;;17.70;9.55;;;;;;;;;;4992172;28;20038;-71
2022/11/07 12:07:08;;;;;;;15.55;7.30;;;;;;;;;;4992622;28;20440;-73
2022/11/07 12:09:45;;;;;;;14.32;6.43;;;;;;;;;;4992786;28;20041;-71
2022/11/07 12:12:45;;;;;;;17.63;7.03;;;;;;;;;;4992567;28;20061;-71
2022/11/07 12:15:59;;;;;;;12.90;6.13;;;;;;;;;;4976958;28;20504;-70
2022/11/07 12:18:47;;;;;;;15.98;7.15;;;;;;;;;;4984564;28;20475;-71
2022/11/07 12:21:35;;;;;;;12.00;6.20;;;;;;;;;;4992747;28;20042;-70
2022/11/07 12:24:32;;;;;;;12.23;6.38;;;;;;;;;;4992200;28;20349;-71
2022/11/07 12:27:23;;;;;;;11.60;6.18;;;;;;;;;;4992984;28;20030;-70
2022/11/07 12:30:14;;;;;;;8.75;5.95;;;;;;;;;;4993096;28;20085;-69
2022/11/07 12:32:52;;;;;;;14.15;6.28;;;;;;;;;;4992533;28;20085;-69
2022/11/07 12:35:36;;;;;;;12.38;7.28;;;;;;;;;;4992731;28;20038;-69
2022/11/07 12:38:30;;;;;;;13.27;7.30;;;;;;;;;;4989177;28;20617;-70
2022/11/07 12:41:08;;;;;;;19.77;7.85;;;;;;;;;;4991597;28;20069;-70
2022/11/07 12:43:40;;;;;;;13.27;6.68;;;;;;;;;;4991464;28;20488;-69
2022/11/07 12:46:12;;;;;;;17.08;7.25;;;;;;;;;;4980552;28;20043;-71
2022/11/07 12:49:15;;;;;;;14.90;7.78;;;;;;;;;;4979867;28;20030;-70
2022/11/07 12:52:10;;;;;;;19.97;6.70;;;;;;;;;;4984723;28;20093;-71
2022/11/07 12:55:01;;;;;;;14.82;7.00;;;;;;;;;;4986895;28;20030;-71
2022/11/07 12:57:32;;;;;;;10.68;6.07;;;;;;;;;;4963681;28;20050;-71
2022/11/07 13:00:14;;;;;;;13.48;7.60;;;;;;;;;;4991014;28;20474;-71
2022/11/07 13:03:15;;;;;;;13.80;7.68;;;;;;;;;;4991453;28;20518;-70
2022/11/07 13:06:01;;;;;;;16.08;7.88;;;;;;;;;;4991831;28;20361;-69
2022/11/07 13:08:37;;;;;;;16.13;6.53;;;;;;;;;;4990831;28;20072;-70
2022/11/07 13:11:12;;;;;;;14.20;6.90;;;;;;;;;;4973968;28;20048;-71
2022/11/07 13:14:00;;;;;;;13.13;7.03;;;;;;;;;;4972231;28;20104;-71
2022/11/07 13:16:32;;;;;;;16.50;7.00;;;;;;;;;;4972587;28;20037;-71
2022/11/07 13:19:25;;;;;;;25.80;7.82;;;;;;;;;;4988323;28;20047;-71
2022/11/07 13:22:14;;;;;;;21.35;8.32;;;;;;;;;;4991356;28;20030;-69
2022/11/07 13:25:09;;;;;;;18.38;7.75;;;;;;;;;;4980593;28;20053;-70
2022/11/07 13:27:39;;;;;;;8.95;6.43;;;;;;;;;;4984935;28;20038;-69
2022/11/07 13:30:11;;;;;;;12.15;6.85;;;;;;;;;;4991785;28;20049;-71
2022/11/07 13:32:40;;;;;;;17.10;8.50;;;;;;;;;;4991763;28;20526;-71
2022/11/07 13:35:23;;;;;;;14.73;7.53;;;;;;;;;;4995122;28;20036;-70
2022/11/07 13:37:59;;;;;;;11.30;7.00;;;;;;;;;;4995299;28;20049;-69
2022/11/07 13:40:29;;;;;;;15.75;7.78;;;;;;;;;;4995747;28;20073;-69
2022/11/07 13:43:00;;;;;;;13.50;6.40;;;;;;;;;;4995303;28;20077;-70
2022/11/07 13:45:50;;;;;;;13.60;6.32;;;;;;;;;;4995010;28;20062;-70
2022/11/07 13:48:22;;;;;;;16.95;7.35;;;;;;;;;;4994882;28;20072;-70
2022/11/07 13:50:58;;;;;;;14.55;7.07;;;;;;;;;;4995347;28;20518;-71
2022/11/07 13:53:31;;;;;;;11.98;6.45;;;;;;;;;;4995734;28;20042;-71
2022/11/07 13:56:19;;;;;;;16.65;6.72;;;;;;;;;;4994722;28;20041;-70
2022/11/07 13:58:46;;;;;;;14.43;6.18;;;;;;;;;;4958541;28;20089;-70
2022/11/07 14:01:12;;;;;;;11.50;6.63;;;;;;;;;;4993000;28;20097;-71
2022/11/07 14:03:38;;;;;;;13.70;6.47;;;;;;;;;;4995858;28;20096;-71
2022/11/07 14:06:05;;;;;;;13.30;6.50;;;;;;;;;;4995537;28;20026;-71
2022/11/07 14:08:38;;;;;;;12.40;7.07;;;;;;;;;;4991865;28;20057;-69
2022/11/07 14:11:22;;;;;;;13.15;6.65;;;;;;;;;;4995064;28;20180;-69
2022/11/07 14:13:53;;;;;;;14.52;6.75;;;;;;;;;;4989882;28;20042;-70
2022/11/07 14:16:25;;;;;;;14.23;6.68;;;;;;;;;;4993242;28;20100;-70
2022/11/07 14:19:01;;;;;;;16.33;7.07;;;;;;;;;;4992190;28;20053;-70
2022/11/07 14:21:30;;;;;;;14.23;5.75;;;;;;;;;;4991739;28;20034;-70
2022/11/07 14:23:56;;;;;;;11.52;7.18;;;;;;;;;;4993507;28;20144;-71
2022/11/07 14:26:31;;;;;;;9.85;5.75;;;;;;;;;;4993304;28;20034;-70
2022/11/07 14:29:01;;;;;;;10.18;6.15;;;;;;;;;;4994062;28;20061;-71
2022/11/07 14:31:34;;;;;;;11.35;6.90;;;;;;;;;;4992108;28;20033;-70
2022/11/07 14:34:23;;;;;;;10.77;5.90;;;;;;;;;;4994036;28;20041;-70
2022/11/07 14:36:55;;;;;;;12.07;6.70;;;;;;;;;;4992124;28;20045;-70
2022/11/07 14:39:24;;;;;;;14.02;6.35;;;;;;;;;;4992499;28;20045;-70
2022/11/07 14:41:51;;;;;;;19.92;7.70;;;;;;;;;;4991903;28;20432;-69
2022/11/07 14:44:32;;;;;;;14.20;7.10;;;;;;;;;;4993462;28;20130;-70
2022/11/07 14:46:58;;;;;;;15.75;6.60;;;;;;;;;;4992177;28;20463;-70
2022/11/07 14:49:35;;;;;;;13.30;7.32;;;;;;;;;;4992621;28;20030;-71
2022/11/07 14:52:01;;;;;;;16.95;8.18;;;;;;;;;;4991677;28;20451;-70
2022/11/07 14:54:40;;;;;;;16.95;7.50;;;;;;;;;;4993028;28;20022;-70
2022/11/07 14:57:12;;;;;;;11.60;7.00;;;;;;;;;;4993028;28;20030;-70
2022/11/07 14:59:38;;;;;;;13.77;7.03;;;;;;;;;;4993246;28;20034;-70
2022/11/07 15:02:07;;;;;;;15.18;7.90;;;;;;;;;;4982320;28;20062;-70
2022/11/07 15:04:40;;;;;;;13.10;7.70;;;;;;;;;;4980143;28;20031;-70
2022/11/07 15:07:22;;;;;;;13.45;7.72;;;;;;;;;;4979639;28;20030;-70
2022/11/07 15:09:49;;;;;;;16.52;8.68;;;;;;;;;;4982964;28;20053;-70
2022/11/07 15:12:17;;;;;;;16.55;9.30;;;;;;;;;;4975163;28;20034;-69